Time;durP1;ratioP1;P1;durP2;ratioP2;P2;SDS_P1;SDS_P2;PMS_P1;PMS_P2;Temp;Humidity;BMP_temperature;BMP_pressure;BME280_temperature;BME280_humidity;BME280_pressure;Samples;Min_cycle;Max_cycle;Signal;HPM_P1;HPM_P2
2021/08/09 05:05:46;;;;;;;;;;;;;;;16.38;75.23;100894.91;5419275;54;21986;-77
2021/08/09 05:10:52;;;;;;;1.30;1.07;;;;;;;16.29;75.55;100891.80;5402779;54;20151;-77
2021/08/09 05:15:58;;;;;;;1.23;1.13;;;;;;;16.36;75.51;100899.06;5302568;55;21191;-77
2021/08/09 05:21:05;;;;;;;3.43;1.10;;;;;;;16.45;75.72;100902.69;5007980;56;31175;-77
2021/08/09 05:26:12;;;;;;;1.80;1.13;;;;;;;16.48;75.75;100905.91;5065337;58;21614;-74
2021/08/09 05:31:17;;;;;;;1.23;1.10;;;;;;;16.51;75.51;100912.77;5065149;58;21185;-75
2021/08/09 05:36:24;;;;;;;3.13;1.40;;;;;;;16.62;75.84;100917.09;5052725;58;22124;-75
2021/08/09 05:41:32;;;;;;;1.33;1.23;;;;;;;16.62;75.15;100921.94;5070894;58;21205;-77
2021/08/09 05:46:39;;;;;;;4.90;1.40;;;;;;;16.67;75.38;100926.36;5070742;58;21174;-76
2021/08/09 05:51:45;;;;;;;1.57;1.30;;;;;;;16.83;75.47;100929.22;5077442;58;21188;-75
2021/08/09 05:56:51;;;;;;;4.23;1.30;;;;;;;16.93;75.10;100931.02;5092072;57;21265;-78
2021/08/09 06:01:58;;;;;;;3.83;1.13;;;;;;;17.02;74.45;100932.77;5091059;58;21241;-81
2021/08/09 06:07:04;;;;;;;3.43;1.20;;;;;;;17.05;74.28;100942.67;5073200;58;21556;-82
2021/08/09 06:12:12;;;;;;;2.90;1.40;;;;;;;17.08;74.15;100954.90;5064601;58;21218;-78
2021/08/09 06:17:20;;;;;;;2.17;1.50;;;;;;;17.20;73.96;100945.67;5060612;58;21177;-80
2021/08/09 06:22:26;;;;;;;3.20;1.07;;;;;;;17.33;73.46;100952.81;5037980;58;21153;-80
2021/08/09 06:27:31;;;;;;;4.30;1.40;;;;;;;17.44;72.82;100950.41;5010162;58;21161;-76
2021/08/09 06:32:38;;;;;;;3.37;1.40;;;;;;;17.51;73.01;100935.44;5037143;58;21110;-79
2021/08/09 06:37:44;;;;;;;2.97;2.17;;;;;;;17.68;73.04;100931.95;5028792;58;22206;-77
2021/08/09 06:42:51;;;;;;;3.80;1.37;;;;;;;17.81;72.25;100943.58;5069768;58;21205;-78
2021/08/09 06:47:58;;;;;;;4.23;1.70;;;;;;;17.93;71.65;100942.33;4938078;59;21713;-77
2021/08/09 06:53:05;;;;;;;2.20;1.20;;;;;;;18.03;71.31;100948.41;4861567;60;21195;-76
2021/08/09 06:58:12;;;;;;;2.00;1.00;;;;;;;18.14;71.05;100960.22;4790661;61;21130;-77
2021/08/09 07:03:18;;;;;;;5.40;1.40;;;;;;;18.30;70.66;100968.86;4770431;61;21231;-79
2021/08/09 07:08:25;;;;;;;3.23;1.33;;;;;;;18.35;69.93;100971.88;4858498;61;21183;-79
2021/08/09 07:13:31;;;;;;;2.37;1.33;;;;;;;18.39;69.49;100973.26;4881740;60;21220;-76
2021/08/09 07:18:38;;;;;;;6.87;1.30;;;;;;;18.53;69.76;100975.84;4883571;60;21135;-78
2021/08/09 07:23:44;;;;;;;4.78;1.30;;;;;;;18.71;68.96;100982.00;4883415;60;21201;-77
2021/08/09 07:28:50;;;;;;;4.58;1.45;;;;;;;18.72;68.64;100978.33;4883402;60;21177;-81
2021/08/09 07:33:56;;;;;;;1.92;1.72;;;;;;;18.90;68.37;100978.23;4870921;59;21186;-82
2021/08/09 07:39:02;;;;;;;2.05;1.75;;;;;;;18.90;67.53;100984.44;4851094;59;21187;-79
2021/08/09 07:44:08;;;;;;;3.02;2.47;;;;;;;18.96;68.28;100974.39;5011386;58;21118;-82
2021/08/09 07:49:15;;;;;;;1.30;1.20;;;;;;;19.01;67.36;100969.89;5049273;58;21189;-85
2021/08/09 07:54:25;;;;;;;3.55;1.07;;;;;;;19.17;67.01;100973.13;5065365;58;21207;-84
2021/08/09 07:59:30;;;;;;;1.47;0.98;;;;;;;19.27;66.39;100976.48;4979891;59;21523;-87
2021/08/09 08:04:36;;;;;;;1.00;0.98;;;;;;;19.45;65.90;100979.05;4996044;59;21176;-76
2021/08/09 08:09:43;;;;;;;3.98;1.30;;;;;;;19.58;65.28;100980.27;4892254;59;21724;-77
2021/08/09 08:14:48;;;;;;;1.70;1.15;;;;;;;19.67;65.57;100979.80;5066075;57;21655;-77
2021/08/09 08:19:55;;;;;;;2.55;1.00;;;;;;;19.89;65.37;100976.42;5018485;58;21572;-80
2021/08/09 08:25:01;;;;;;;7.08;1.17;;;;;;;20.10;64.07;100977.77;5068600;58;21206;-76
2021/08/09 08:30:08;;;;;;;5.08;1.55;;;;;;;20.22;63.55;100977.73;5007948;58;21497;-78
2021/08/09 08:35:15;;;;;;;1.70;0.80;;;;;;;20.34;62.85;100979.05;5066778;58;21160;-78
2021/08/09 08:40:21;;;;;;;1.45;0.98;;;;;;;20.51;59.24;100975.86;5068463;58;21206;-79
2021/08/09 08:45:29;;;;;;;2.30;1.40;;;;;;;20.53;60.57;100976.03;5052741;58;21579;-77
2021/08/09 08:50:37;;;;;;;4.25;0.80;;;;;;;20.66;60.64;100977.66;5029116;58;21220;-76
2021/08/09 08:55:43;;;;;;;3.27;1.00;;;;;;;20.81;60.41;100976.42;5070383;58;21789;-79
2021/08/09 09:00:52;;;;;;;1.87;0.93;;;;;;;21.05;58.26;100984.91;5068311;58;21196;-77
2021/08/09 09:06:10;;;;;;;1.45;1.00;;;;;;;21.07;57.86;100985.58;5016214;58;21603;-78
2021/08/09 09:11:28;;;;;;;1.47;1.02;;;;;;;21.17;57.57;100988.88;5040827;59;21161;-79
2021/08/09 09:16:46;;;;;;;3.50;1.42;;;;;;;21.18;56.52;101000.47;5046598;59;21182;-77
2021/08/09 09:21:52;;;;;;;3.10;1.30;;;;;;;21.31;57.38;101006.98;5042647;58;21197;-79
2021/08/09 09:27:05;;;;;;;3.27;1.25;;;;;;;21.41;56.51;101004.89;4990141;58;22104;-77
2021/08/09 09:32:23;;;;;;;1.82;1.00;;;;;;;21.50;55.28;100999.48;5009510;59;22114;-79
2021/08/09 09:37:35;;;;;;;2.02;1.22;;;;;;;21.61;55.64;100991.82;5046638;58;21177;-79
2021/08/09 09:42:42;;;;;;;2.40;1.10;;;;;;;21.84;53.44;100995.88;5051861;57;21166;-78
2021/08/09 09:48:03;;;;;;;0.88;0.60;;;;;;;21.95;53.69;101000.82;5046655;59;21178;-78
2021/08/09 09:53:23;;;;;;;1.85;1.35;;;;;;;22.05;54.72;100992.00;5047413;59;21635;-76
2021/08/09 09:58:31;;;;;;;100.78;10.08;;;;;;;22.15;54.51;101001.70;5047431;59;21233;-77
2021/08/09 10:03:41;;;;;;;1.85;1.55;;;;;;;22.20;52.87;101002.81;5047080;59;21215;-78
2021/08/09 10:08:48;;;;;;;4.62;1.30;;;;;;;22.40;52.21;101006.66;5003260;59;21923;-80
2021/08/09 10:13:56;;;;;;;0.93;0.90;;;;;;;22.54;51.51;101003.65;5047606;59;21231;-84
2021/08/09 10:19:03;;;;;;;2.45;0.90;;;;;;;22.74;50.49;101002.59;5005711;58;21626;-81
2021/08/09 10:24:12;;;;;;;4.17;1.57;;;;;;;22.71;51.74;101005.66;5047111;59;21525;-80
2021/08/09 10:29:16;;;;;;;2.47;0.88;;;;;;;22.88;49.04;101003.64;5051879;57;21198;-79
2021/08/09 10:34:40;;;;;;;3.35;1.25;;;;;;;23.04;48.54;101008.33;5055546;58;21181;-79
2021/08/09 10:39:58;;;;;;;3.67;0.88;;;;;;;23.13;48.18;101009.87;5053127;58;21217;-79
2021/08/09 10:45:07;;;;;;;3.08;1.07;;;;;;;23.35;48.12;101022.92;5045121;59;21110;-79
2021/08/09 10:50:40;;;;;;;1.30;0.68;;;;;;;23.54;47.93;101007.14;5020531;59;21146;-79
2021/08/09 10:55:43;;;;;;;2.87;0.95;;;;;;;23.65;47.45;101010.70;5000840;58;21205;-79
2021/08/09 11:00:54;;;;;;;1.55;0.78;;;;;;;23.59;46.44;101002.84;5006726;58;21155;-78
2021/08/09 11:06:15;;;;;;;1.43;0.70;;;;;;;23.76;46.91;101010.19;5049117;58;21149;-78
2021/08/09 11:11:20;;;;;;;3.05;0.82;;;;;;;23.99;46.12;101004.05;4919268;60;21178;-80
2021/08/09 11:16:31;;;;;;;1.90;1.10;;;;;;;24.07;43.97;100998.52;4920301;60;21217;-78
2021/08/09 11:21:37;;;;;;;5.80;1.00;;;;;;;23.97;44.50;101002.59;4920286;60;21180;-83
2021/08/09 11:26:43;;;;;;;1.47;0.95;;;;;;;24.15;43.06;100994.83;4884867;60;21586;-78
2021/08/09 11:31:50;;;;;;;7.08;1.60;;;;;;;24.17;44.38;100997.66;4818269;60;21125;-80
2021/08/09 11:37:05;;;;;;;1.77;0.75;;;;;;;24.46;43.86;100999.34;4881020;60;22237;-81
2021/08/09 11:42:11;;;;;;;0.85;0.70;;;;;;;24.49;43.08;100990.02;4892444;60;21241;-78
2021/08/09 11:47:23;;;;;;;1.87;1.12;;;;;;;24.22;41.93;100987.62;4960584;59;21527;-80
2021/08/09 11:52:29;;;;;;;1.30;0.65;;;;;;;24.18;43.86;100996.63;4988745;59;21167;-87
2021/08/09 11:57:41;;;;;;;1.85;0.70;;;;;;;24.37;42.73;100997.01;4988558;59;21155;-79
2021/08/09 12:03:23;;;;;;;0.93;0.80;;;;;;;24.37;41.75;101009.17;4988894;59;21165;-79
2021/08/09 12:08:24;;;;;;;2.55;1.07;;;;;;;24.36;43.36;100995.33;5049973;57;21144;-78
2021/08/09 12:13:32;;;;;;;1.07;0.78;;;;;;;24.59;42.25;101000.49;5068846;58;21540;-79
2021/08/09 12:18:42;;;;;;;2.12;1.00;;;;;;;24.65;42.12;100999.16;5019979;58;21169;-78
2021/08/09 12:23:55;;;;;;;1.37;1.00;;;;;;;24.64;42.64;100999.36;4991960;59;21176;-78
2021/08/09 12:29:06;;;;;;;6.35;1.52;;;;;;;24.88;42.27;100992.95;4996231;58;21744;-81
2021/08/09 12:34:11;;;;;;;1.20;0.80;;;;;;;24.92;41.35;100992.53;4996906;59;21155;-78
2021/08/09 12:39:35;;;;;;;1.20;0.93;;;;;;;24.79;41.26;100992.78;4996925;59;21163;-77
2021/08/09 12:44:40;;;;;;;2.50;1.22;;;;;;;24.74;42.37;100989.03;4997071;59;21159;-77
2021/08/09 12:49:46;;;;;;;2.60;1.10;;;;;;;24.86;40.92;100988.26;4997159;59;21170;-77
2021/08/09 12:54:52;;;;;;;3.35;0.75;;;;;;;24.92;40.58;100991.17;4949913;58;21160;-78
2021/08/09 12:59:58;;;;;;;1.92;1.05;;;;;;;24.95;40.57;100995.70;4963898;58;21653;-78
2021/08/09 13:05:04;;;;;;;1.57;1.02;;;;;;;25.08;39.62;101008.45;4995193;58;22259;-78
2021/08/09 13:10:11;;;;;;;4.12;1.50;;;;;;;25.36;40.17;101009.73;4987016;58;22064;-78
2021/08/09 13:15:16;;;;;;;3.08;0.90;;;;;;;25.59;39.27;101002.91;5011258;58;21098;-78
2021/08/09 13:20:22;;;;;;;2.50;1.42;;;;;;;25.56;37.54;101001.95;5008874;58;21303;-77
2021/08/09 13:25:28;;;;;;;1.50;0.72;;;;;;;25.53;36.83;101006.41;5013638;58;21187;-80
2021/08/09 13:30:33;;;;;;;5.80;1.60;;;;;;;25.51;38.26;100991.44;5013055;58;21244;-77
2021/08/09 13:35:41;;;;;;;3.55;1.22;;;;;;;25.36;37.98;100998.34;4972887;58;21225;-77
2021/08/09 13:40:46;;;;;;;0.98;0.70;;;;;;;25.34;38.77;100994.20;5008188;58;21643;-77
2021/08/09 13:45:52;;;;;;;2.55;0.88;;;;;;;25.48;37.82;100987.78;4983028;58;22212;-80
2021/08/09 13:50:59;;;;;;;3.52;1.40;;;;;;;25.38;39.27;100996.80;5023975;59;21186;-77
2021/08/09 13:56:05;;;;;;;1.35;0.95;;;;;;;25.48;38.38;100983.20;4952077;60;21122;-78
2021/08/09 14:01:12;;;;;;;2.87;0.70;;;;;;;25.51;37.73;100986.02;4980334;59;21198;-77
2021/08/09 14:06:18;;;;;;;3.10;1.15;;;;;;;25.45;37.29;100988.18;4965264;59;21161;-78
2021/08/09 14:11:24;;;;;;;0.70;0.57;;;;;;;25.32;38.06;100992.21;5000931;58;21153;-77
2021/08/09 14:16:32;;;;;;;3.70;0.80;;;;;;;25.48;37.42;100976.95;4978047;59;21174;-80
2021/08/09 14:21:39;;;;;;;4.80;1.05;;;;;;;25.63;36.73;100993.05;4951958;59;21481;-79
2021/08/09 14:26:45;;;;;;;6.37;0.72;;;;;;;25.61;35.89;100989.16;5030672;59;21533;-78
2021/08/09 14:31:51;;;;;;;5.90;1.40;;;;;;;25.65;36.75;100988.27;5035586;59;21690;-74
2021/08/09 14:36:57;;;;;;;2.40;1.07;;;;;;;25.79;35.94;100986.72;5031442;58;21162;-77
2021/08/09 14:42:04;;;;;;;1.22;1.10;;;;;;;25.63;36.16;100983.05;4971754;59;21114;-79
2021/08/09 14:47:11;;;;;;;11.95;8.43;;;;;;;25.54;37.53;100992.36;5020375;59;21591;-75
2021/08/09 14:52:18;;;;;;;4.28;0.85;;;;;;;25.38;38.63;100998.15;5035692;59;21182;-79
2021/08/09 14:57:24;;;;;;;3.50;1.27;;;;;;;25.49;39.11;100985.39;4955656;60;21188;-76
2021/08/09 15:02:33;;;;;;;2.25;1.00;;;;;;;25.39;38.76;100993.05;4955997;60;21188;-80
2021/08/09 15:07:40;;;;;;;3.77;0.85;;;;;;;25.27;38.69;100994.17;4967928;58;21110;-78
2021/08/09 15:12:47;;;;;;;3.33;0.95;;;;;;;25.10;39.56;100988.27;4827775;60;21209;-75
2021/08/09 15:17:52;;;;;;;1.37;0.70;;;;;;;25.22;39.62;100979.05;4967484;59;21766;-79
2021/08/09 15:22:58;;;;;;;4.03;3.05;;;;;;;25.29;38.50;100974.50;4967496;59;21181;-78
2021/08/09 15:28:04;;;;;;;24.55;12.90;;;;;;;25.45;39.13;100967.35;4967191;59;21205;-80
2021/08/09 15:33:10;;;;;;;3.83;2.75;;;;;;;25.50;38.17;100966.23;4967315;59;21181;-74
2021/08/09 15:38:16;;;;;;;0.70;0.70;;;;;;;25.53;38.47;100959.53;4967221;59;21126;-76
2021/08/09 15:43:22;;;;;;;0.95;0.95;;;;;;;25.49;38.51;100952.37;4967283;59;22131;-80
2021/08/09 15:48:28;;;;;;;4.50;1.10;;;;;;;25.42;37.52;100964.21;4966993;59;21170;-78
2021/08/09 15:53:33;;;;;;;3.10;1.50;;;;;;;25.36;38.27;100958.28;4966996;59;21539;-78
2021/08/09 15:58:40;;;;;;;8.63;1.27;;;;;;;25.35;38.65;100956.61;4966230;59;21555;-78
2021/08/09 16:03:46;;;;;;;3.08;1.17;;;;;;;25.46;39.24;100962.77;4971014;59;21200;-76
2021/08/09 16:08:52;;;;;;;3.15;0.85;;;;;;;25.51;38.74;100959.73;5038420;57;21196;-75
2021/08/09 16:13:58;;;;;;;0.93;0.93;;;;;;;25.46;38.96;100954.64;4980005;59;21184;-77
2021/08/09 16:19:04;;;;;;;2.90;1.00;;;;;;;25.41;39.37;100957.95;4993556;59;22178;-75
2021/08/09 16:24:10;;;;;;;2.50;1.47;;;;;;;25.36;39.77;100952.31;4993112;59;21215;-73
2021/08/09 16:29:16;;;;;;;2.40;1.12;;;;;;;25.41;39.79;100944.42;4993525;59;21177;-77
2021/08/09 16:34:23;;;;;;;8.40;4.03;;;;;;;25.47;39.04;100938.71;4993468;59;21109;-77
2021/08/09 16:39:28;;;;;;;5.37;2.10;;;;;;;25.43;39.65;100939.63;4993520;59;21176;-78
2021/08/09 16:44:35;;;;;;;3.45;0.95;;;;;;;25.41;38.50;100940.88;4992787;59;21571;-78
2021/08/09 16:49:41;;;;;;;1.85;0.90;;;;;;;25.38;38.37;100933.98;4992792;59;21217;-75
2021/08/09 16:54:46;;;;;;;4.00;2.33;;;;;;;25.27;37.49;100931.89;4993371;59;21209;-77
2021/08/09 16:59:52;;;;;;;3.47;1.45;;;;;;;25.18;38.68;100939.38;4993315;59;22203;-75
2021/08/09 17:04:58;;;;;;;3.45;1.10;;;;;;;25.07;37.95;100937.77;4969577;59;21255;-78
2021/08/09 17:10:04;;;;;;;4.10;1.25;;;;;;;24.95;38.71;100931.28;4933922;58;21174;-76
2021/08/09 17:15:11;;;;;;;1.15;1.02;;;;;;;24.75;38.91;100930.64;5035389;59;21499;-74
2021/08/09 17:20:17;;;;;;;6.62;1.00;;;;;;;24.53;38.97;100932.63;5035341;59;21520;-76
2021/08/09 17:25:25;;;;;;;2.25;0.98;;;;;;;24.40;39.35;100929.02;5035353;59;21178;-76
2021/08/09 17:30:30;;;;;;;1.20;1.02;;;;;;;24.25;39.51;100939.12;5035296;59;21189;-76
2021/08/09 17:35:38;;;;;;;2.87;0.95;;;;;;;24.10;39.79;100937.84;5035396;58;21154;-76
2021/08/09 17:40:43;;;;;;;5.30;1.70;;;;;;;24.01;39.97;100941.19;5035375;59;21154;-76
2021/08/09 17:45:49;;;;;;;8.48;1.00;;;;;;;23.94;40.14;100938.13;5035245;58;21513;-77
2021/08/09 17:50:55;;;;;;;10.30;8.08;;;;;;;23.89;40.51;100933.83;5035442;58;21182;-76
2021/08/09 17:56:00;;;;;;;18.85;2.52;;;;;;;23.89;40.66;100933.31;5035412;59;21157;-77
2021/08/09 18:01:06;;;;;;;42.78;24.05;;;;;;;23.86;40.76;100933.70;5035391;58;21148;-78
2021/08/09 18:06:11;;;;;;;23.73;5.37;;;;;;;23.86;41.04;100940.45;5019681;58;21491;-77
2021/08/09 18:11:18;;;;;;;339.45;151.90;;;;;;;23.83;42.00;100936.81;4984030;58;21161;-78
2021/08/09 18:16:26;;;;;;;122.87;52.15;;;;;;;23.87;43.08;100938.07;4990653;58;21223;-78
2021/08/09 18:21:32;;;;;;;81.97;33.65;;;;;;;23.93;43.48;100936.46;5005450;58;21154;-76
2021/08/09 18:26:38;;;;;;;78.90;31.97;;;;;;;23.97;43.51;100943.16;5032033;59;21647;-77
2021/08/09 18:31:43;;;;;;;21.68;13.48;;;;;;;23.92;44.07;100945.08;4975445;58;21220;-79
2021/08/09 18:36:49;;;;;;;49.27;30.27;;;;;;;23.75;44.41;100955.84;4997571;58;21170;-77
2021/08/09 18:41:55;;;;;;;30.68;13.65;;;;;;;23.41;45.78;100960.05;5010597;58;21587;-77
2021/08/09 18:47:02;;;;;;;540.52;218.27;;;;;;;23.16;46.60;100969.54;5035876;59;21623;-77
2021/08/09 18:52:08;;;;;;;363.00;130.30;;;;;;;23.08;47.34;100973.17;5033685;59;21204;-78
2021/08/09 18:57:13;;;;;;;182.22;66.45;;;;;;;23.07;48.16;100980.09;5010269;58;21865;-79
2021/08/09 19:02:19;;;;;;;42.83;16.70;;;;;;;23.04;48.78;100982.69;5035760;59;21181;-77
2021/08/09 19:07:25;;;;;;;24.47;9.20;;;;;;;22.99;49.29;100985.11;5007112;59;21571;-78
2021/08/09 19:12:36;;;;;;;24.07;7.80;;;;;;;22.90;49.21;100986.25;4984235;58;21164;-83
2021/08/09 19:17:40;;;;;;;17.65;7.65;;;;;;;22.78;48.74;100994.47;4984160;59;21208;-85
2021/08/09 19:22:46;;;;;;;49.98;20.45;;;;;;;22.61;49.18;100997.83;4984599;59;21241;-86
2021/08/09 19:27:51;;;;;;;78.72;31.73;;;;;;;22.39;49.75;100985.28;4984451;59;21160;-81
2021/08/09 19:32:58;;;;;;;62.13;27.67;;;;;;;22.23;50.45;100984.09;4984136;59;21742;-81
2021/08/09 19:38:04;;;;;;;63.45;24.77;;;;;;;22.14;50.87;100986.55;4984093;59;21176;-82
2021/08/09 19:43:11;;;;;;;59.85;20.00;;;;;;;22.08;51.23;100985.41;4984098;59;21176;-85
2021/08/09 19:48:17;;;;;;;49.30;17.62;;;;;;;21.97;51.64;100990.71;4987143;58;21850;-84
2021/08/09 19:53:22;;;;;;;33.20;13.32;;;;;;;21.84;52.08;100990.48;5016684;59;21118;-81
2021/08/09 19:58:28;;;;;;;48.00;16.65;;;;;;;21.69;52.44;100991.75;5009061;58;21198;-81
2021/08/09 20:03:34;;;;;;;30.23;12.75;;;;;;;21.57;53.04;100996.39;5006728;58;21189;-81
2021/08/09 20:08:40;;;;;;;36.45;11.60;;;;;;;21.56;53.43;100994.71;4994541;59;21164;-83
2021/08/09 20:13:46;;;;;;;67.15;25.08;;;;;;;21.47;53.53;100999.83;4984921;58;21177;-78
2021/08/09 20:18:52;;;;;;;52.35;23.50;;;;;;;21.39;53.85;101004.23;5011811;58;21469;-82
2021/08/09 20:23:59;;;;;;;25.65;8.88;;;;;;;21.23;53.55;101008.39;5004882;58;21563;-79
2021/08/09 20:29:05;;;;;;;16.12;6.58;;;;;;;21.17;53.86;101005.02;4967667;58;21166;-79
2021/08/09 20:34:11;;;;;;;18.37;6.60;;;;;;;21.08;54.22;101011.46;4995272;58;21212;-80
2021/08/09 20:39:16;;;;;;;21.87;6.80;;;;;;;21.04;54.75;101004.75;4991877;59;21181;-81
2021/08/09 20:44:22;;;;;;;24.07;7.85;;;;;;;20.97;54.90;101005.94;4992302;59;21123;-82
2021/08/09 20:49:27;;;;;;;30.12;8.75;;;;;;;20.89;55.09;101002.45;4992863;58;21220;-80
2021/08/09 20:54:33;;;;;;;23.95;7.58;;;;;;;20.81;55.54;101001.97;5008686;58;21173;-78
2021/08/09 20:59:39;;;;;;;38.35;11.33;;;;;;;20.79;55.67;100997.77;5009919;58;21619;-79
2021/08/09 21:04:45;;;;;;;25.97;8.85;;;;;;;20.67;55.76;100994.62;5014466;59;21197;-78
2021/08/09 21:09:50;;;;;;;19.12;6.25;;;;;;;20.57;56.17;101000.72;4996380;58;21626;-80
2021/08/09 21:14:56;;;;;;;14.50;5.72;;;;;;;20.35;55.95;100999.04;5003024;58;21501;-82
2021/08/09 21:20:02;;;;;;;17.62;5.92;;;;;;;20.27;56.34;100999.56;4991061;58;21245;-84
2021/08/09 21:25:08;;;;;;;14.47;6.47;;;;;;;20.23;56.75;101000.91;5002766;58;22161;-82
2021/08/09 21:30:14;;;;;;;17.42;5.40;;;;;;;20.11;56.83;101003.11;5006392;58;21137;-80
2021/08/09 21:35:20;;;;;;;8.65;4.30;;;;;;;19.99;57.29;101000.44;5015148;59;21165;-79
2021/08/09 21:40:26;;;;;;;9.85;3.80;;;;;;;19.89;57.48;100991.69;5013697;58;21154;-79
2021/08/09 21:45:32;;;;;;;10.08;4.15;;;;;;;19.77;57.70;100996.56;5017823;58;22071;-80
2021/08/09 21:50:40;;;;;;;11.22;5.40;;;;;;;19.62;57.83;101001.75;5014631;59;21693;-80
2021/08/09 21:55:45;;;;;;;9.63;4.08;;;;;;;19.56;58.20;101005.58;5017293;59;21552;-82
2021/08/09 22:00:53;;;;;;;9.45;5.35;;;;;;;19.43;58.35;101002.51;5014908;59;21655;-81
2021/08/09 22:05:58;;;;;;;10.53;6.20;;;;;;;19.36;58.74;101003.69;5009750;59;21179;-83
2021/08/09 22:11:06;;;;;;;10.18;4.70;;;;;;;19.33;59.23;101001.33;5047482;58;21171;-77
2021/08/09 22:16:12;;;;;;;10.15;4.20;;;;;;;19.33;59.40;100998.64;5038512;59;21180;-81
2021/08/09 22:21:18;;;;;;;5.37;3.52;;;;;;;19.26;59.43;100996.27;5035964;59;21120;-81
2021/08/09 22:26:23;;;;;;;5.92;3.40;;;;;;;19.25;59.63;100994.08;5035631;59;21210;-80
2021/08/09 22:31:29;;;;;;;8.20;4.28;;;;;;;19.20;59.61;100998.28;5035600;59;21723;-80
2021/08/09 22:36:35;;;;;;;47.03;12.95;;;;;;;19.06;59.87;100991.70;5035784;59;21171;-83
2021/08/09 22:41:41;;;;;;;23.85;7.72;;;;;;;18.86;60.22;100995.13;5035539;58;21224;-81
2021/08/09 22:46:46;;;;;;;10.08;4.47;;;;;;;18.76;60.67;100991.75;5034949;59;22074;-80
2021/08/09 22:51:52;;;;;;;6.33;3.90;;;;;;;18.68;60.85;100993.03;5035398;59;21184;-82
2021/08/09 22:56:58;;;;;;;4.67;3.67;;;;;;;18.64;61.03;100993.53;5035656;59;21255;-81
2021/08/09 23:02:05;;;;;;;6.35;3.60;;;;;;;18.59;61.42;100989.48;5035887;59;22097;-79
2021/08/09 23:07:10;;;;;;;8.30;4.22;;;;;;;18.60;61.69;100997.02;5035627;59;21578;-79
2021/08/09 23:12:16;;;;;;;8.10;4.20;;;;;;;18.64;62.03;100993.53;5035400;59;21184;-76
2021/08/09 23:17:22;;;;;;;9.45;3.80;;;;;;;18.69;62.26;101001.91;5045519;58;21182;-79
2021/08/09 23:22:28;;;;;;;5.20;3.40;;;;;;;18.71;62.36;101005.27;5047393;59;21542;-79
2021/08/09 23:27:33;;;;;;;9.73;4.17;;;;;;;18.69;62.43;101003.25;5047191;59;21223;-82
2021/08/09 23:32:42;;;;;;;6.25;4.22;;;;;;;18.60;62.37;101003.22;5047025;59;21212;-80
2021/08/09 23:37:47;;;;;;;3.62;1.98;;;;;;;18.51;62.35;101004.13;5047341;58;21183;-78
2021/08/09 23:42:54;;;;;;;2.25;2.05;;;;;;;18.42;62.51;101002.91;5046198;59;21179;-81
2021/08/09 23:48:00;;;;;;;8.38;2.25;;;;;;;18.33;62.96;100998.02;5047006;59;21722;-79
2021/08/09 23:53:05;;;;;;;4.72;1.82;;;;;;;18.25;62.95;100989.91;5046905;59;21179;-80
2021/08/09 23:58:11;;;;;;;6.90;2.03;;;;;;;18.21;63.37;100997.91;5047028;59;21179;-80
